Time;durP1;ratioP1;P1;durP2;ratioP2;P2;SDS_P1;SDS_P2;PMS_P1;PMS_P2;Temp;Humidity;BMP_temperature;BMP_pressure;BME280_temperature;BME280_humidity;BME280_pressure;Samples;Min_cycle;Max_cycle;Signal;HPM_P1;HPM_P2
2022/03/28 00:01:36;;;;;;;;;;;10.30;1.00;;;;;;10362673;28;84948;-49
2022/03/28 00:06:37;;;;;;;;;;;10.30;1.00;;;;;;10355842;28;84164;-52
2022/03/28 00:11:37;;;;;;;;;;;10.30;1.00;;;;;;10346717;28;87126;-50
2022/03/28 00:16:38;;;;;;;;;;;10.10;1.00;;;;;;10371977;28;84840;-54
2022/03/28 00:21:39;;;;;;;;;;;10.00;1.00;;;;;;10373923;28;84168;-52
2022/03/28 00:26:39;;;;;;;;;;;10.00;1.00;;;;;;10429591;22;84890;-56
2022/03/28 00:31:40;;;;;;;;;;;9.90;1.00;;;;;;10413396;28;84313;-56
2022/03/28 00:36:41;;;;;;;;;;;9.80;1.00;;;;;;10377468;28;84916;-54
2022/03/28 00:41:42;;;;;;;;;;;9.60;1.00;;;;;;10371408;28;84114;-57
2022/03/28 00:46:43;;;;;;;;;;;9.60;1.00;;;;;;10369248;28;85950;-57
2022/03/28 00:51:44;;;;;;;;;;;9.60;1.00;;;;;;10371481;28;84210;-55
2022/03/28 00:56:45;;;;;;;;;;;9.60;1.00;;;;;;10369938;28;84218;-54
2022/03/28 01:01:46;;;;;;;;;;;9.70;1.00;;;;;;10368271;28;84802;-53
2022/03/28 01:06:47;;;;;;;;;;;9.50;1.00;;;;;;10358349;28;84957;-57
2022/03/28 01:11:49;;;;;;;;;;;9.60;1.00;;;;;;10379343;28;84049;-56
2022/03/28 01:22:08;;;;;;;;;;;9.40;1.00;;;;;;10352041;28;84865;-55
2022/03/28 01:27:09;;;;;;;;;;;9.30;1.00;;;;;;10334572;28;84228;-57
2022/03/28 01:32:10;;;;;;;;;;;9.20;1.00;;;;;;10365680;28;84219;-56
2022/03/28 01:37:11;;;;;;;;;;;9.10;1.00;;;;;;10363089;28;84206;-55
2022/03/28 01:42:11;;;;;;;;;;;9.10;1.00;;;;;;10369601;28;85045;-55
2022/03/28 01:47:11;;;;;;;;;;;8.90;1.00;;;;;;10368243;28;84923;-53
2022/03/28 01:52:12;;;;;;;;;;;8.90;1.00;;;;;;10369442;28;84511;-56
2022/03/28 01:57:13;;;;;;;;;;;8.70;1.00;;;;;;10367640;28;84613;-52
2022/03/28 02:02:13;;;;;;;;;;;8.60;1.00;;;;;;10369068;28;84076;-52
2022/03/28 02:07:16;;;;;;;;;;;8.60;1.00;;;;;;10367281;28;84232;-54
2022/03/28 02:12:16;;;;;;;;;;;8.50;1.00;;;;;;10368356;28;84084;-56
2022/03/28 02:17:17;;;;;;;;;;;8.50;1.00;;;;;;10367968;28;84015;-55
2022/03/28 02:22:17;;;;;;;;;;;8.40;1.00;;;;;;10368667;28;84728;-56
2022/03/28 02:27:18;;;;;;;;;;;8.30;1.00;;;;;;10367306;28;84169;-52
2022/03/28 02:32:18;;;;;;;;;;;8.10;1.00;;;;;;10368143;28;84092;-56
2022/03/28 02:37:19;;;;;;;;;;;8.10;1.00;;;;;;10337216;28;87269;-53
2022/03/28 02:42:22;;;;;;;;;;;8.00;1.00;;;;;;10336004;28;84331;-52
2022/03/28 02:47:22;;;;;;;;;;;8.00;1.00;;;;;;10367382;28;84884;-54
2022/03/28 02:52:23;;;;;;;;;;;7.90;1.00;;;;;;10360355;28;84208;-55
2022/03/28 02:57:23;;;;;;;;;;;7.90;1.00;;;;;;10357905;28;84729;-52
2022/03/28 03:02:24;;;;;;;;;;;7.80;25.20;;;;;;10358752;28;84923;-55
2022/03/28 03:07:24;;;;;;;;;;;7.80;52.50;;;;;;10365829;28;84290;-53
2022/03/28 03:12:25;;;;;;;;;;;7.80;25.60;;;;;;10364997;28;87301;-56
2022/03/28 03:17:25;;;;;;;;;;;7.80;10.40;;;;;;10366325;28;84898;-55
2022/03/28 03:22:26;;;;;;;;;;;7.70;51.90;;;;;;10366859;28;84885;-54
2022/03/28 03:27:27;;;;;;;;;;;7.70;85.20;;;;;;10364517;28;85883;-54
2022/03/28 03:32:27;;;;;;;;;;;7.80;47.70;;;;;;10345960;28;84013;-52
2022/03/28 03:37:28;;;;;;;;;;;7.60;99.90;;;;;;10325487;28;84329;-54
2022/03/28 03:42:29;;;;;;;;;;;7.60;99.90;;;;;;10343330;28;84952;-54
2022/03/28 03:47:29;;;;;;;;;;;7.60;99.90;;;;;;10365369;28;84227;-54
2022/03/28 03:52:30;;;;;;;;;;;7.50;99.90;;;;;;10367724;28;84813;-53
2022/03/28 03:57:31;;;;;;;;;;;7.40;99.90;;;;;;10371599;28;86327;-56
2022/03/28 04:02:31;;;;;;;;;;;7.40;99.90;;;;;;10372452;28;85089;-55
2022/03/28 04:07:32;;;;;;;;;;;7.40;99.90;;;;;;10372175;28;84333;-55
2022/03/28 04:12:32;;;;;;;;;;;7.40;99.90;;;;;;10367630;28;85997;-55
2022/03/28 04:17:43;;;;;;;;;;;7.40;99.90;;;;;;10369905;28;84173;-53
2022/03/28 04:22:45;;;;;;;;;;;7.30;99.90;;;;;;10368230;28;84588;-52
2022/03/28 04:27:46;;;;;;;;;;;7.30;99.90;;;;;;10370877;28;84282;-51
2022/03/28 04:32:46;;;;;;;;;;;7.30;99.90;;;;;;10371091;28;84857;-51
2022/03/28 04:37:47;;;;;;;;;;;7.10;99.90;;;;;;10369596;28;84218;-53
2022/03/28 04:42:48;;;;;;;;;;;7.10;99.90;;;;;;10370962;28;84222;-49
2022/03/28 04:47:49;;;;;;;;;;;7.20;99.90;;;;;;10363188;28;84454;-54
2022/03/28 04:52:49;;;;;;;;;;;7.10;99.90;;;;;;10366742;28;84855;-56
2022/03/28 04:57:50;;;;;;;;;;;7.10;99.90;;;;;;10370098;28;84249;-54
2022/03/28 05:02:51;;;;;;;;;;;7.10;99.90;;;;;;10363965;28;84858;-57
2022/03/28 05:07:51;;;;;;;;;;;6.90;99.90;;;;;;10366858;28;85314;-55
2022/03/28 05:12:52;;;;;;;;;;;6.90;99.90;;;;;;10367657;28;84207;-53
2022/03/28 05:17:52;;;;;;;;;;;6.90;99.90;;;;;;10371535;28;84928;-56
2022/03/28 05:22:53;;;;;;;;;;;6.80;99.90;;;;;;10372149;28;84915;-57
2022/03/28 05:27:53;;;;;;;;;;;6.90;99.90;;;;;;10359527;28;84188;-57
2022/03/28 05:32:54;;;;;;;;;;;6.80;99.90;;;;;;10368130;28;84904;-57
2022/03/28 05:37:54;;;;;;;;;;;6.90;99.90;;;;;;10369936;28;84257;-55
2022/03/28 05:42:55;;;;;;;;;;;6.90;99.90;;;;;;10370629;28;84186;-56
2022/03/28 05:47:56;;;;;;;;;;;6.70;99.90;;;;;;10369410;28;84047;-56
2022/03/28 05:52:56;;;;;;;;;;;6.70;99.90;;;;;;10369543;28;84051;-57
2022/03/28 05:57:57;;;;;;;;;;;6.80;99.90;;;;;;10367111;28;84938;-56
2022/03/28 06:02:58;;;;;;;;;;;6.90;99.90;;;;;;10362176;28;84247;-55
2022/03/28 06:07:59;;;;;;;;;;;6.90;99.90;;;;;;10351137;28;84235;-54
2022/03/28 06:12:59;;;;;;;;;;;7.00;41.30;;;;;;10327303;28;84188;-53
2022/03/28 06:18:00;;;;;;;;;;;7.00;10.30;;;;;;10344040;28;84235;-55
2022/03/28 06:23:02;;;;;;;;;;;7.00;1.00;;;;;;10383531;22;85297;-58
2022/03/28 06:28:03;;;;;;;;;;;7.10;1.00;;;;;;10408480;28;86354;-48
2022/03/28 06:33:03;;;;;;;;;;;7.30;1.00;;;;;;10411649;28;84440;-51
2022/03/28 06:38:05;;;;;;;;;;;7.60;1.00;;;;;;10410928;28;84168;-50
2022/03/28 06:43:05;;;;;;;;;;;7.80;1.00;;;;;;10410605;28;85055;-50
2022/03/28 06:48:06;;;;;;;;;;;8.30;1.00;;;;;;10409361;28;84127;-51
2022/03/28 06:53:06;;;;;;;;;;;8.20;1.00;;;;;;10409187;28;86887;-47
2022/03/28 06:58:07;;;;;;;;;;;8.70;1.00;;;;;;10407915;28;84034;-52
2022/03/28 07:03:08;;;;;;;;;;;9.20;1.00;;;;;;10409764;28;85710;-49
2022/03/28 07:08:09;;;;;;;;;;;9.50;1.00;;;;;;10406387;28;85919;-49
2022/03/28 07:13:09;;;;;;;;;;;9.70;1.00;;;;;;10410015;28;84904;-47
2022/03/28 07:18:10;;;;;;;;;;;10.20;99.90;;;;;;10408803;28;84114;-52
2022/03/28 07:23:12;;;;;;;;;;;10.70;99.90;;;;;;10409560;28;84858;-45
2022/03/28 07:28:13;;;;;;;;;;;10.20;99.90;;;;;;10410286;28;87157;-51
2022/03/28 07:33:14;;;;;;;;;;;11.10;51.80;;;;;;10416959;28;84198;-47
2022/03/28 07:38:15;;;;;;;;;;;11.80;1.00;;;;;;10416382;28;84153;-47
2022/03/28 07:43:16;;;;;;;;;;;12.10;1.00;;;;;;10416278;28;84142;-53
2022/03/28 07:48:16;;;;;;;;;;;11.90;1.00;;;;;;10414415;28;85128;-47
2022/03/28 07:53:17;;;;;;;;;;;12.40;1.00;;;;;;10416213;28;84257;-48
2022/03/28 07:58:17;;;;;;;;;;;12.00;1.00;;;;;;10415896;28;84801;-48
2022/03/28 08:03:18;;;;;;;;;;;11.50;1.00;;;;;;10414617;28;84941;-54
2022/03/28 08:08:20;;;;;;;;;;;11.40;1.00;;;;;;10415129;28;84314;-49
2022/03/28 08:13:21;;;;;;;;;;;12.80;1.00;;;;;;10415883;28;84782;-53
2022/03/28 08:18:21;;;;;;;;;;;13.10;99.90;;;;;;10414010;28;84163;-49
2022/03/28 08:23:22;;;;;;;;;;;13.40;99.90;;;;;;10415147;28;84098;-49
2022/03/28 08:28:23;;;;;;;;;;;13.60;91.90;;;;;;10413496;28;85881;-48
2022/03/28 08:33:23;;;;;;;;;;;13.70;6.30;;;;;;10414905;28;84089;-53
2022/03/28 08:38:24;;;;;;;;;;;14.90;1.00;;;;;;10411799;28;84313;-53
2022/03/28 08:43:25;;;;;;;;;;;15.30;30.00;;;;;;10415230;28;84034;-48
2022/03/28 08:48:27;;;;;;;;;;;15.40;1.00;;;;;;10413994;28;84660;-49
2022/03/28 08:53:28;;;;;;;;;;;16.20;99.90;;;;;;10414474;28;84101;-48
2022/03/28 08:58:29;;;;;;;;;;;16.70;1.00;;;;;;10413882;28;84213;-48
2022/03/28 09:03:40;;;;;;;;;;;17.10;99.90;;;;;;10414445;28;85064;-53
2022/03/28 09:08:40;;;;;;;;;;;17.10;1.00;;;;;;10414088;28;85258;-49
2022/03/28 09:13:44;;;;;;;;;;;16.80;1.00;;;;;;10413734;28;84129;-48
2022/03/28 09:18:44;;;;;;;;;;;17.00;1.00;;;;;;10413064;28;84266;-51
2022/03/28 09:23:45;;;;;;;;;;;16.70;99.90;;;;;;10413131;28;94651;-48
2022/03/28 09:28:53;;;;;;;;;;;16.50;1.00;;;;;;10412433;28;84966;-51
2022/03/28 09:34:00;;;;;;;;;;;17.10;1.00;;;;;;10413857;28;84835;-47
2022/03/28 09:39:02;;;;;;;;;;;17.70;32.20;;;;;;10415227;28;84746;-52
2022/03/28 09:44:03;;;;;;;;;;;18.30;1.00;;;;;;10395461;28;85265;-49
2022/03/28 09:49:05;;;;;;;;;;;18.10;1.00;;;;;;10412349;28;84872;-53
2022/03/28 09:54:18;;;;;;;;;;;18.20;1.00;;;;;;10411123;28;85931;-44
2022/03/28 09:59:21;;;;;;;;;;;18.60;1.00;;;;;;10410522;28;85340;-51
2022/03/28 10:04:21;;;;;;;;;;;18.50;99.90;;;;;;10410828;28;86199;-46
2022/03/28 10:09:22;;;;;;;;;;;18.80;99.90;;;;;;10411881;28;84624;-48
2022/03/28 10:14:23;;;;;;;;;;;18.50;99.90;;;;;;10411343;28;84792;-53
2022/03/28 10:19:24;;;;;;;;;;;17.80;99.90;;;;;;10411706;28;84128;-48
2022/03/28 10:24:25;;;;;;;;;;;17.50;99.90;;;;;;10410286;28;85278;-48
2022/03/28 10:29:36;;;;;;;;;;;18.60;99.90;;;;;;10410344;28;84306;-53
2022/03/28 10:34:48;;;;;;;;;;;19.30;1.00;;;;;;10395971;28;86473;-53
2022/03/28 10:39:50;;;;;;;;;;;20.20;1.00;;;;;;10410623;28;85980;-49
2022/03/28 10:45:03;;;;;;;;;;;19.20;99.90;;;;;;10411941;28;84945;-52
2022/03/28 10:50:04;;;;;;;;;;;19.90;99.90;;;;;;10411321;28;84902;-51
2022/03/28 10:55:06;;;;;;;;;;;20.30;99.90;;;;;;10412249;28;84261;-53
2022/03/28 11:00:09;;;;;;;;;;;20.90;1.00;;;;;;10409554;28;85024;-48
2022/03/28 11:05:13;;;;;;;;;;;20.70;1.00;;;;;;10409429;28;84129;-54
2022/03/28 11:10:15;;;;;;;;;;;20.40;1.00;;;;;;10408646;28;84995;-51
2022/03/28 11:15:18;;;;;;;;;;;20.70;1.00;;;;;;10410509;28;84151;-56
2022/03/28 11:20:20;;;;;;;;;;;21.40;1.00;;;;;;10408523;28;84120;-49
2022/03/28 11:25:27;;;;;;;;;;;20.70;1.00;;;;;;10409448;28;84323;-51
2022/03/28 11:30:27;;;;;;;;;;;21.10;99.90;;;;;;10410072;28;84032;-49
2022/03/28 11:35:28;;;;;;;;;;;21.10;1.00;;;;;;10408927;28;84174;-51
2022/03/28 11:40:38;;;;;;;;;;;21.60;1.00;;;;;;10409957;28;84868;-50
2022/03/28 11:45:46;;;;;;;;;;;21.30;99.90;;;;;;10407173;28;85944;-47
2022/03/28 11:50:47;;;;;;;;;;;21.30;1.00;;;;;;10409437;28;84205;-48
2022/03/28 11:55:49;;;;;;;;;;;20.90;99.90;;;;;;10408785;28;85026;-48
2022/03/28 12:00:50;;;;;;;;;;;21.40;99.90;;;;;;10409633;28;85146;-53
2022/03/28 12:05:50;;;;;;;;;;;21.20;99.90;;;;;;10409057;28;84850;-50
2022/03/28 12:10:52;;;;;;;;;;;22.00;99.90;;;;;;10409573;28;84978;-54
2022/03/28 12:15:54;;;;;;;;;;;21.40;99.90;;;;;;10414452;28;84098;-48
2022/03/28 12:20:54;;;;;;;;;;;21.50;99.90;;;;;;10415107;28;84095;-48
2022/03/28 12:25:59;;;;;;;;;;;21.70;99.90;;;;;;10415704;28;84059;-53
2022/03/28 12:31:00;;;;;;;;;;;22.30;99.90;;;;;;10414758;28;86070;-50
2022/03/28 12:36:05;;;;;;;;;;;22.50;99.90;;;;;;10414383;28;84154;-51
2022/03/28 12:41:08;;;;;;;;;;;21.90;5.30;;;;;;10414859;28;84041;-51
2022/03/28 12:46:10;;;;;;;;;;;21.70;1.00;;;;;;10414606;28;84129;-53
2022/03/28 12:51:11;;;;;;;;;;;21.70;1.00;;;;;;10416368;28;84176;-51
2022/03/28 12:56:15;;;;;;;;;;;21.10;1.00;;;;;;10415413;28;84119;-51
2022/03/28 13:01:20;;;;;;;;;;;20.80;1.00;;;;;;10415127;28;84047;-53
2022/03/28 13:06:21;;;;;;;;;;;21.10;1.00;;;;;;10414402;28;84739;-51
2022/03/28 13:11:22;;;;;;;;;;;21.10;1.00;;;;;;10413578;28;84928;-54
2022/03/28 13:16:23;;;;;;;;;;;21.90;23.80;;;;;;10411840;28;96821;-52
2022/03/28 13:21:30;;;;;;;;;;;22.10;17.60;;;;;;10414469;28;84231;-49
2022/03/28 13:26:38;;;;;;;;;;;22.30;1.00;;;;;;10410069;28;84277;-49
2022/03/28 13:31:40;;;;;;;;;;;21.50;1.00;;;;;;10413153;28;84992;-50
2022/03/28 13:36:40;;;;;;;;;;;21.70;1.00;;;;;;10411601;28;86130;-50
2022/03/28 13:41:41;;;;;;;;;;;22.20;1.00;;;;;;10413953;28;85560;-50
2022/03/28 13:46:41;;;;;;;;;;;22.10;1.00;;;;;;10411813;28;85416;-48
2022/03/28 13:51:42;;;;;;;;;;;22.20;1.00;;;;;;10412686;28;84218;-49
2022/03/28 13:56:43;;;;;;;;;;;22.00;1.00;;;;;;10411729;28;84103;-51
2022/03/28 14:01:43;;;;;;;;;;;21.70;1.00;;;;;;10411285;28;86066;-48
2022/03/28 14:06:45;;;;;;;;;;;21.90;1.00;;;;;;10410859;28;84782;-49
2022/03/28 14:11:46;;;;;;;;;;;22.00;1.00;;;;;;10394087;28;86792;-51
2022/03/28 14:16:47;;;;;;;;;;;21.70;1.00;;;;;;10411172;28;84182;-44
2022/03/28 14:21:47;;;;;;;;;;;21.00;1.00;;;;;;10411705;28;85010;-50
2022/03/28 14:26:48;;;;;;;;;;;20.60;1.00;;;;;;10409739;28;84979;-53
2022/03/28 14:31:49;;;;;;;;;;;20.40;1.00;;;;;;10412068;28;84136;-52
2022/03/28 14:36:50;;;;;;;;;;;20.80;1.00;;;;;;10408825;28;85980;-50
2022/03/28 14:41:50;;;;;;;;;;;21.10;1.00;;;;;;10410742;28;84423;-47
2022/03/28 14:47:00;;;;;;;;;;;21.00;1.00;;;;;;10410032;28;84953;-56
2022/03/28 14:52:00;;;;;;;;;;;20.70;1.00;;;;;;10410390;28;84927;-46
2022/03/28 14:57:01;;;;;;;;;;;19.40;1.00;;;;;;10404333;28;84907;-48
2022/03/28 15:02:02;;;;;;;;;;;19.20;1.00;;;;;;10401587;28;85266;-49
2022/03/28 15:07:03;;;;;;;;;;;19.10;1.00;;;;;;10401391;28;84284;-50
2022/03/28 15:12:04;;;;;;;;;;;18.90;99.90;;;;;;10402812;28;84285;-46
2022/03/28 15:17:05;;;;;;;;;;;18.50;99.90;;;;;;10401357;28;84901;-49
2022/03/28 15:22:05;;;;;;;;;;;17.80;1.00;;;;;;10407660;28;84120;-53
2022/03/28 15:27:06;;;;;;;;;;;17.60;99.90;;;;;;10409062;28;84917;-49
2022/03/28 15:32:07;;;;;;;;;;;17.20;1.00;;;;;;10409257;28;84268;-52
2022/03/28 15:37:09;;;;;;;;;;;16.90;99.90;;;;;;10408471;28;84356;-48
2022/03/28 15:42:10;;;;;;;;;;;16.80;69.80;;;;;;10408680;28;84659;-53
2022/03/28 15:47:10;;;;;;;;;;;16.70;99.90;;;;;;10408944;28;84200;-50
2022/03/28 15:52:11;;;;;;;;;;;16.60;1.00;;;;;;10415950;28;84128;-48
2022/03/28 15:57:12;;;;;;;;;;;16.50;99.90;;;;;;10413965;28;86509;-48
2022/03/28 16:02:13;;;;;;;;;;;16.40;99.90;;;;;;10415558;28;85110;-52
2022/03/28 16:07:13;;;;;;;;;;;16.40;99.90;;;;;;10414489;28;84132;-48
2022/03/28 16:12:14;;;;;;;;;;;16.20;99.90;;;;;;10415845;28;84980;-50
2022/03/28 16:17:15;;;;;;;;;;;16.00;1.00;;;;;;10397099;28;84800;-50
2022/03/28 16:22:15;;;;;;;;;;;16.00;1.00;;;;;;10398495;28;86039;-50
2022/03/28 16:27:16;;;;;;;;;;;15.90;1.00;;;;;;10398465;28;84938;-53
2022/03/28 16:32:19;;;;;;;;;;;15.80;1.00;;;;;;10395933;28;84174;-50
2022/03/28 16:37:19;;;;;;;;;;;15.70;1.00;;;;;;10413614;28;84330;-50
2022/03/28 16:42:20;;;;;;;;;;;15.60;99.90;;;;;;10414431;28;84821;-50
2022/03/28 16:47:23;;;;;;;;;;;15.60;1.00;;;;;;10413294;28;84240;-48
2022/03/28 16:52:25;;;;;;;;;;;15.50;1.00;;;;;;10406770;28;84876;-51
2022/03/28 16:57:26;;;;;;;;;;;15.30;99.90;;;;;;10374923;28;84756;-51
2022/03/28 17:02:27;;;;;;;;;;;15.20;45.60;;;;;;10373993;28;83987;-51
2022/03/28 17:07:27;;;;;;;;;;;15.10;1.00;;;;;;10397917;28;84202;-47
2022/03/28 17:12:28;;;;;;;;;;;14.90;1.00;;;;;;10384050;28;84506;-47
2022/03/28 17:17:29;;;;;;;;;;;14.80;1.00;;;;;;10388626;28;86911;-51
2022/03/28 17:22:29;;;;;;;;;;;14.70;1.00;;;;;;10395672;28;85032;-51
2022/03/28 17:27:30;;;;;;;;;;;14.50;99.90;;;;;;10391542;28;85143;-53
2022/03/28 17:32:30;;;;;;;;;;;14.50;99.90;;;;;;10409177;28;85017;-48
2022/03/28 17:37:31;;;;;;;;;;;14.40;99.90;;;;;;10407778;28;86999;-51
2022/03/28 17:42:32;;;;;;;;;;;14.40;1.00;;;;;;10397539;28;84535;-55
2022/03/28 17:47:33;;;;;;;;;;;14.30;1.00;;;;;;10392500;28;84226;-52
2022/03/28 17:52:34;;;;;;;;;;;14.20;1.00;;;;;;10407308;28;84915;-50
2022/03/28 17:57:34;;;;;;;;;;;14.10;1.00;;;;;;10396334;28;84277;-57
2022/03/28 18:02:35;;;;;;;;;;;14.00;99.90;;;;;;10412898;28;84349;-59
2022/03/28 18:07:36;;;;;;;;;;;13.90;99.90;;;;;;10392187;28;84142;-56
2022/03/28 18:12:36;;;;;;;;;;;13.80;1.00;;;;;;10410034;28;85397;-53
2022/03/28 18:17:37;;;;;;;;;;;13.80;1.00;;;;;;10403684;28;84196;-58
2022/03/28 18:22:38;;;;;;;;;;;13.80;1.00;;;;;;10401820;28;84041;-60
2022/03/28 18:27:40;;;;;;;;;;;13.70;1.00;;;;;;10414379;22;85245;-58
2022/03/28 18:32:42;;;;;;;;;;;13.50;1.00;;;;;;10402333;28;85011;-57
2022/03/28 18:37:45;;;;;;;;;;;13.40;1.00;;;;;;10404395;28;86920;-59
2022/03/28 18:42:46;;;;;;;;;;;13.40;1.00;;;;;;10411693;28;85261;-63
2022/03/28 18:47:47;;;;;;;;;;;13.30;1.00;;;;;;10409655;28;84927;-56
2022/03/28 18:52:47;;;;;;;;;;;13.10;48.60;;;;;;10408824;28;85029;-55
2022/03/28 18:57:48;;;;;;;;;;;12.90;99.90;;;;;;10391130;28;87018;-57
2022/03/28 19:02:48;;;;;;;;;;;12.80;99.90;;;;;;10409502;28;84455;-56
2022/03/28 19:07:51;;;;;;;;;;;12.70;99.90;;;;;;10401672;28;84012;-56
2022/03/28 19:12:51;;;;;;;;;;;12.70;99.90;;;;;;10407513;28;84070;-58
2022/03/28 19:17:52;;;;;;;;;;;12.60;1.00;;;;;;10409299;28;84141;-58
2022/03/28 19:22:54;;;;;;;;;;;12.50;1.00;;;;;;10409393;28;86400;-55
2022/03/28 19:27:55;;;;;;;;;;;12.40;1.00;;;;;;10413951;28;85192;-53
2022/03/28 19:32:55;;;;;;;;;;;12.30;1.00;;;;;;10415768;28;84786;-60
2022/03/28 19:37:56;;;;;;;;;;;12.20;1.00;;;;;;10416495;28;84908;-61
2022/03/28 19:42:57;;;;;;;;;;;12.10;1.00;;;;;;10417276;28;84811;-58
2022/03/28 19:48:01;;;;;;;;;;;12.00;99.90;;;;;;10414205;28;87105;-59
2022/03/28 19:53:03;;;;;;;;;;;11.90;99.90;;;;;;10416808;28;84051;-61
2022/03/28 19:58:03;;;;;;;;;;;11.90;99.90;;;;;;10416290;28;84904;-55
2022/03/28 20:03:04;;;;;;;;;;;11.80;1.00;;;;;;10405211;28;86844;-55
2022/03/28 20:08:04;;;;;;;;;;;11.80;1.00;;;;;;10391760;28;84878;-59
2022/03/28 20:13:05;;;;;;;;;;;11.80;1.00;;;;;;10400500;28;85858;-56
2022/03/28 20:18:06;;;;;;;;;;;11.60;1.00;;;;;;10411997;28;84979;-53
2022/03/28 20:23:06;;;;;;;;;;;11.50;1.00;;;;;;10416553;28;84067;-53
2022/03/28 20:28:07;;;;;;;;;;;11.40;1.00;;;;;;10414101;28;84221;-51
2022/03/28 20:33:07;;;;;;;;;;;11.40;1.00;;;;;;10414488;28;86109;-56
2022/03/28 20:38:10;;;;;;;;;;;11.30;1.00;;;;;;10396105;28;86906;-52
2022/03/28 20:43:10;;;;;;;;;;;11.20;1.00;;;;;;10397341;28;85948;-53
2022/03/28 20:48:11;;;;;;;;;;;11.20;91.60;;;;;;10403455;28;86611;-52
2022/03/28 20:53:12;;;;;;;;;;;11.20;99.90;;;;;;10404213;28;85057;-52
2022/03/28 20:58:13;;;;;;;;;;;11.10;99.90;;;;;;10403579;28;84013;-51
2022/03/28 21:03:13;;;;;;;;;;;11.00;99.90;;;;;;10395524;28;84845;-53
2022/03/28 21:08:15;;;;;;;;;;;10.90;99.90;;;;;;10405769;28;84998;-53
2022/03/28 21:13:16;;;;;;;;;;;10.90;99.90;;;;;;10400071;28;85149;-50
2022/03/28 21:18:16;;;;;;;;;;;10.80;99.90;;;;;;10388511;28;84562;-50
2022/03/28 21:23:19;;;;;;;;;;;10.70;99.90;;;;;;10393776;28;84987;-50
2022/03/28 21:28:20;;;;;;;;;;;10.70;99.90;;;;;;10397418;28;86054;-52
2022/03/28 21:33:21;;;;;;;;;;;10.60;1.00;;;;;;10396793;28;84031;-51
2022/03/28 21:38:21;;;;;;;;;;;10.50;1.00;;;;;;10395771;28;85304;-49
2022/03/28 21:43:22;;;;;;;;;;;10.50;1.00;;;;;;10413403;28;84250;-49
2022/03/28 21:48:23;;;;;;;;;;;10.40;1.00;;;;;;10411818;28;85164;-51
2022/03/28 21:53:24;;;;;;;;;;;10.30;1.00;;;;;;10377127;28;84119;-52
2022/03/28 21:58:24;;;;;;;;;;;10.20;1.00;;;;;;10353077;28;84938;-51
2022/03/28 22:03:25;;;;;;;;;;;10.20;1.00;;;;;;10371494;28;86565;-48
2022/03/28 22:08:26;;;;;;;;;;;10.20;1.00;;;;;;10392510;28;84880;-52
2022/03/28 22:13:26;;;;;;;;;;;10.20;1.00;;;;;;10412458;28;85033;-50
2022/03/28 22:18:27;;;;;;;;;;;10.00;1.00;;;;;;10410987;28;84801;-48
2022/03/28 22:23:28;;;;;;;;;;;9.90;1.00;;;;;;10411577;28;84051;-49
2022/03/28 22:28:28;;;;;;;;;;;9.80;1.00;;;;;;10388308;28;84190;-52
2022/03/28 22:33:29;;;;;;;;;;;9.70;1.00;;;;;;10370488;28;84177;-50
2022/03/28 22:38:29;;;;;;;;;;;9.60;1.00;;;;;;10369466;28;84037;-53
2022/03/28 22:43:30;;;;;;;;;;;9.50;1.00;;;;;;10369989;28;84788;-53
2022/03/28 22:48:30;;;;;;;;;;;9.40;1.00;;;;;;10369007;28;84063;-51
2022/03/28 22:53:31;;;;;;;;;;;9.30;1.00;;;;;;10369869;28;84919;-50
2022/03/28 22:58:32;;;;;;;;;;;9.20;1.00;;;;;;10365668;28;84723;-50
2022/03/28 23:03:32;;;;;;;;;;;9.10;1.00;;;;;;10388185;28;84900;-49
2022/03/28 23:08:33;;;;;;;;;;;9.20;1.00;;;;;;10409422;28;84806;-52
2022/03/28 23:13:33;;;;;;;;;;;9.10;1.00;;;;;;10410437;28;84823;-54
2022/03/28 23:18:34;;;;;;;;;;;9.00;1.00;;;;;;10408218;28;86862;-53
2022/03/28 23:23:34;;;;;;;;;;;8.80;1.00;;;;;;10377960;28;84938;-46
2022/03/28 23:28:35;;;;;;;;;;;8.80;1.00;;;;;;10367828;28;85049;-50
2022/03/28 23:33:35;;;;;;;;;;;8.70;1.00;;;;;;10368300;28;84858;-50
2022/03/28 23:38:36;;;;;;;;;;;8.70;1.00;;;;;;10367111;28;84380;-51
2022/03/28 23:43:37;;;;;;;;;;;8.50;1.00;;;;;;10367763;28;85820;-53
2022/03/28 23:48:37;;;;;;;;;;;8.50;1.00;;;;;;10368310;28;84111;-50
2022/03/28 23:53:38;;;;;;;;;;;8.40;19.00;;;;;;10368181;28;85007;-49
2022/03/28 23:58:38;;;;;;;;;;;8.40;20.70;;;;;;10367107;28;84144;-52
